createdAt,value
2023-03-26T00:00:54.227Z,4.68
2023-03-26T00:03:20.946Z,3.67
2023-03-26T00:05:50.688Z,4.32
2023-03-26T00:08:17.727Z,3.92
2023-03-26T00:10:44.389Z,3.67
2023-03-26T00:13:11.413Z,3.80
2023-03-26T00:15:38.393Z,3.75
2023-03-26T00:18:05.809Z,3.80
2023-03-26T00:20:35.104Z,5.22
2023-03-26T00:23:01.680Z,4.88
2023-03-26T00:25:28.534Z,4.40
2023-03-26T00:27:55.106Z,4.63
2023-03-26T00:30:21.653Z,5.07
2023-03-26T00:32:53.664Z,4.25
2023-03-26T00:35:20.908Z,4.40
2023-03-26T00:37:47.729Z,4.28
2023-03-26T00:40:14.308Z,4.13
2023-03-26T00:42:42.371Z,4.07
2023-03-26T00:45:09.151Z,4.57
2023-03-26T00:47:36.124Z,4.00
2023-03-26T00:50:04.314Z,4.10
2023-03-26T00:52:31.754Z,4.07
2023-03-26T00:54:58.393Z,3.70
2023-03-26T00:57:35.975Z,4.32
2023-03-26T01:00:10.137Z,4.25
2023-03-26T01:02:36.726Z,4.35
2023-03-26T01:05:35.093Z,3.55
2023-03-26T01:08:15.928Z,3.83
2023-03-26T01:10:44.473Z,4.15
2023-03-26T01:13:11.199Z,4.27
2023-03-26T01:15:39.065Z,4.10
2023-03-26T01:18:09.765Z,3.67
2023-03-26T01:20:46.604Z,4.03
2023-03-26T01:23:21.921Z,4.10
2023-03-26T01:25:56.985Z,4.25
2023-03-26T01:28:26.179Z,4.75
2023-03-26T01:31:14.731Z,4.15
2023-03-26T01:33:50.743Z,5.00
2023-03-26T01:36:32.514Z,4.47
2023-03-26T01:39:25.160Z,4.35
2023-03-26T01:41:57.176Z,4.28
2023-03-26T01:44:38.416Z,3.97
2023-03-26T01:47:06.480Z,3.35
2023-03-26T01:49:33.469Z,4.43
2023-03-26T01:52:00.610Z,4.43
2023-03-26T01:54:30.558Z,4.25
2023-03-26T01:57:23.980Z,4.40
2023-03-26T02:00:12.048Z,4.38
2023-03-26T02:02:50.706Z,4.05
2023-03-26T02:05:33.895Z,4.20
2023-03-26T02:08:16.493Z,4.00
2023-03-26T02:10:47.180Z,4.45
2023-03-26T02:13:13.891Z,3.80
2023-03-26T02:15:41.057Z,4.07
2023-03-26T02:18:10.814Z,4.00
2023-03-26T02:20:37.696Z,4.30
2023-03-26T02:23:04.204Z,3.75
2023-03-26T02:25:30.727Z,4.03
2023-03-26T02:27:57.186Z,3.95
2023-03-26T02:30:26.011Z,3.40
2023-03-26T02:32:54.197Z,4.45
2023-03-26T02:35:22.219Z,4.07
2023-03-26T02:37:50.878Z,3.45
2023-03-26T02:40:22.352Z,4.18
2023-03-26T02:42:49.464Z,4.97
2023-03-26T02:45:16.140Z,3.63
2023-03-26T02:47:43.349Z,3.83
2023-03-26T02:50:12.084Z,3.70
2023-03-26T02:52:38.741Z,4.03
2023-03-26T02:55:05.692Z,3.50
2023-03-26T02:57:32.250Z,4.05
2023-03-26T02:59:59.000Z,4.22
2023-03-26T03:02:25.667Z,3.80
2023-03-26T03:04:52.315Z,3.92
2023-03-26T03:07:20.365Z,3.67
2023-03-26T03:09:46.872Z,4.90
2023-03-26T03:12:13.425Z,4.05
2023-03-26T03:14:40.731Z,4.13
2023-03-26T03:17:07.325Z,4.47
2023-03-26T03:19:33.844Z,3.90
2023-03-26T03:22:00.426Z,3.80
2023-03-26T03:24:27.087Z,3.63
2023-03-26T03:26:56.868Z,4.13
2023-03-26T03:29:23.913Z,3.17
2023-03-26T03:31:50.624Z,3.35
2023-03-26T03:34:17.150Z,4.15
2023-03-26T03:36:48.544Z,3.50
2023-03-26T03:39:15.414Z,3.47
2023-03-26T03:41:41.955Z,3.88
2023-03-26T03:44:08.528Z,4.07
2023-03-26T03:46:35.417Z,3.60
2023-03-26T03:49:03.122Z,3.55
2023-03-26T03:51:29.785Z,4.07
2023-03-26T03:53:56.617Z,3.72
2023-03-26T03:56:24.177Z,3.45
2023-03-26T03:58:51.580Z,4.07
2023-03-26T04:01:18.603Z,3.50
2023-03-26T04:03:46.947Z,3.55
2023-03-26T04:06:13.823Z,3.80
2023-03-26T04:08:40.536Z,3.72
2023-03-26T04:11:07.023Z,4.55
2023-03-26T04:13:33.733Z,3.95
2023-03-26T04:16:00.542Z,3.03
2023-03-26T04:18:27.679Z,3.65
2023-03-26T04:20:55.542Z,3.10
2023-03-26T04:23:23.103Z,3.35
2023-03-26T04:25:54.346Z,3.78
2023-03-26T04:28:42.254Z,3.03
2023-03-26T04:31:13.930Z,3.53
2023-03-26T04:33:40.677Z,3.38
2023-03-26T04:36:09.209Z,3.65
2023-03-26T04:38:44.685Z,3.53
2023-03-26T04:41:13.078Z,3.92
2023-03-26T04:43:46.922Z,3.95
2023-03-26T04:46:14.415Z,3.30
2023-03-26T04:48:41.120Z,4.10
2023-03-26T04:51:10.657Z,3.38
2023-03-26T04:53:37.206Z,3.30
2023-03-26T04:56:07.051Z,3.28
2023-03-26T04:58:33.747Z,3.50
2023-03-26T05:01:10.354Z,3.80
2023-03-26T05:03:39.159Z,3.42
2023-03-26T05:06:05.880Z,4.05
2023-03-26T05:08:32.385Z,5.00
2023-03-26T05:10:58.979Z,10.55
2023-03-26T05:13:25.597Z,6.70
2023-03-26T05:15:52.499Z,5.85
2023-03-26T05:18:19.123Z,4.63
2023-03-26T05:20:46.269Z,4.40
2023-03-26T05:23:12.850Z,4.10
2023-03-26T05:25:39.484Z,4.65
2023-03-26T05:28:06.288Z,7.18
2023-03-26T05:30:32.869Z,5.88
2023-03-26T05:32:59.446Z,7.55
2023-03-26T05:35:25.953Z,5.93
2023-03-26T05:37:52.540Z,5.97
2023-03-26T05:40:19.996Z,4.65
2023-03-26T05:42:47.343Z,8.05
2023-03-26T05:45:16.095Z,6.43
2023-03-26T05:47:42.730Z,4.82
2023-03-26T05:50:10.982Z,4.32
2023-03-26T05:52:37.713Z,4.85
2023-03-26T05:55:04.513Z,4.95
2023-03-26T05:57:31.706Z,5.47
2023-03-26T05:59:58.221Z,5.60
2023-03-26T06:02:24.769Z,4.45
2023-03-26T06:04:51.543Z,4.35
2023-03-26T06:07:19.827Z,6.68
2023-03-26T06:09:46.691Z,6.78
2023-03-26T06:12:14.140Z,5.40
2023-03-26T06:14:42.837Z,4.38
2023-03-26T06:17:10.668Z,4.78
2023-03-26T06:19:37.542Z,4.43
2023-03-26T06:22:04.833Z,4.35
2023-03-26T06:24:31.942Z,4.75
2023-03-26T06:26:58.410Z,3.90
2023-03-26T06:29:25.102Z,3.55
2023-03-26T06:31:51.581Z,3.53
2023-03-26T06:34:18.145Z,3.35
2023-03-26T06:36:44.670Z,4.38
2023-03-26T06:39:11.301Z,3.95
2023-03-26T06:41:37.827Z,4.18
2023-03-26T06:44:04.390Z,3.45
2023-03-26T06:46:31.677Z,3.92
2023-03-26T06:48:58.394Z,3.95
2023-03-26T06:51:24.961Z,3.30
2023-03-26T06:53:51.509Z,4.28
2023-03-26T06:56:18.076Z,3.70
2023-03-26T06:58:44.542Z,3.95
2023-03-26T07:01:11.224Z,3.40
2023-03-26T07:03:37.905Z,3.55
2023-03-26T07:06:04.729Z,3.30
2023-03-26T07:08:31.486Z,3.72
2023-03-26T07:10:58.299Z,3.70
2023-03-26T07:13:24.915Z,3.92
2023-03-26T07:15:51.402Z,3.75
2023-03-26T07:18:18.130Z,3.60
2023-03-26T07:20:46.028Z,3.75
2023-03-26T07:23:15.501Z,4.10
2023-03-26T07:25:42.466Z,4.20
2023-03-26T07:28:30.742Z,3.45
2023-03-26T07:31:11.415Z,4.07
2023-03-26T07:33:47.977Z,3.50
2023-03-26T07:36:24.403Z,3.22
2023-03-26T07:39:09.183Z,3.83
2023-03-26T07:41:49.926Z,3.67
2023-03-26T07:44:35.720Z,4.28
2023-03-26T07:47:15.182Z,4.00
2023-03-26T07:49:43.347Z,3.80
2023-03-26T07:52:11.103Z,4.10
2023-03-26T07:54:38.002Z,3.10
2023-03-26T07:57:40.929Z,4.18
2023-03-26T08:00:27.132Z,3.53
2023-03-26T08:03:19.508Z,3.80
2023-03-26T08:06:22.313Z,3.95
2023-03-26T08:09:20.619Z,4.38
2023-03-26T08:11:58.028Z,3.38
2023-03-26T08:14:53.323Z,3.60
2023-03-26T08:17:33.869Z,3.80
2023-03-26T08:20:32.060Z,3.85
2023-03-26T08:23:15.458Z,3.70
2023-03-26T08:25:59.251Z,3.58
2023-03-26T08:28:52.670Z,3.97
2023-03-26T08:31:28.760Z,4.03
2023-03-26T08:33:55.550Z,4.13
2023-03-26T08:36:22.006Z,4.53
2023-03-26T08:38:48.531Z,4.63
2023-03-26T08:41:33.008Z,3.78
2023-03-26T08:44:24.423Z,4.32
2023-03-26T08:47:28.180Z,4.05
2023-03-26T08:50:13.589Z,4.60
2023-03-26T08:53:01.759Z,3.72
2023-03-26T08:55:41.334Z,4.00
2023-03-26T08:58:25.953Z,3.33
2023-03-26T09:01:30.152Z,3.25
2023-03-26T09:04:15.472Z,3.08
2023-03-26T09:07:00.392Z,3.20
2023-03-26T09:10:07.170Z,3.28
2023-03-26T09:13:01.227Z,3.10
2023-03-26T09:15:52.069Z,3.10
2023-03-26T09:18:53.600Z,3.30
2023-03-26T09:21:49.797Z,2.83
2023-03-26T09:24:37.489Z,2.97
2023-03-26T09:27:25.642Z,2.53
2023-03-26T09:30:16.751Z,2.75
2023-03-26T09:33:16.887Z,2.67
2023-03-26T09:36:04.494Z,2.60
2023-03-26T09:38:43.291Z,2.60
2023-03-26T09:41:35.387Z,1.60
2023-03-26T09:44:36.009Z,2.38
2023-03-26T09:47:32.357Z,1.88
2023-03-26T09:50:34.185Z,2.08
2023-03-26T09:53:09.564Z,1.98
2023-03-26T09:55:57.563Z,2.30
2023-03-26T09:58:41.776Z,2.15
2023-03-26T10:01:25.032Z,2.50
2023-03-26T10:04:23.720Z,2.20
2023-03-26T10:06:58.503Z,2.13
2023-03-26T10:09:43.088Z,2.03
2023-03-26T10:12:13.710Z,2.42
2023-03-26T10:15:02.946Z,2.70
2023-03-26T10:18:27.756Z,2.25
2023-03-26T10:21:06.125Z,1.88
2023-03-26T10:23:41.448Z,2.33
2023-03-26T10:26:33.422Z,2.13
2023-03-26T10:29:00.030Z,2.20
2023-03-26T10:31:39.292Z,2.20
2023-03-26T10:35:00.258Z,2.10
2023-03-26T10:37:50.653Z,2.55
2023-03-26T10:40:42.864Z,2.22
2023-03-26T10:43:31.029Z,2.63
2023-03-26T10:46:39.249Z,2.17
2023-03-26T10:49:37.963Z,2.45
2023-03-26T10:52:20.892Z,1.90
2023-03-26T10:55:35.225Z,2.60
2023-03-26T10:58:22.993Z,2.40
2023-03-26T11:01:03.462Z,2.80
2023-03-26T11:03:43.748Z,2.35
2023-03-26T11:06:32.040Z,2.67
2023-03-26T11:09:23.642Z,2.35
2023-03-26T11:12:26.352Z,2.40
2023-03-26T11:15:01.248Z,2.25
2023-03-26T11:17:40.841Z,2.72
2023-03-26T11:20:27.386Z,2.50
2023-03-26T11:23:07.970Z,3.03
2023-03-26T11:25:58.366Z,2.40
2023-03-26T11:29:04.422Z,2.17
2023-03-26T11:31:57.638Z,2.17
2023-03-26T11:34:50.672Z,1.90
2023-03-26T11:37:26.027Z,2.05
2023-03-26T11:39:56.820Z,2.10
2023-03-26T11:42:24.764Z,2.20
2023-03-26T11:45:05.648Z,2.55
2023-03-26T11:47:39.020Z,2.55
2023-03-26T11:50:10.657Z,2.25
2023-03-26T11:52:37.336Z,2.00
2023-03-26T11:55:03.967Z,2.17
2023-03-26T11:57:35.133Z,2.42
2023-03-26T12:00:16.198Z,2.58
2023-03-26T12:02:44.502Z,2.25
2023-03-26T12:05:13.799Z,1.98
2023-03-26T12:07:55.761Z,2.65
2023-03-26T12:10:33.243Z,2.10
2023-03-26T12:13:02.921Z,2.20
2023-03-26T12:15:31.978Z,1.80
2023-03-26T12:17:59.487Z,1.73
2023-03-26T12:20:26.108Z,1.15
2023-03-26T12:23:00.558Z,1.30
2023-03-26T12:25:32.375Z,1.20
2023-03-26T12:28:13.958Z,0.50
2023-03-26T12:30:44.884Z,0.93
2023-03-26T12:33:22.090Z,0.90
2023-03-26T12:35:49.312Z,0.90
2023-03-26T12:38:32.963Z,0.52
2023-03-26T12:44:49.409Z,0.95
2023-03-26T12:44:51.172Z,1.52
2023-03-26T12:47:54.325Z,1.45
2023-03-26T12:49:33.745Z,1.30
2023-03-26T12:52:19.659Z,1.30
2023-03-26T12:55:03.124Z,1.70
2023-03-26T12:58:13.746Z,0.88
2023-03-26T13:01:11.213Z,0.60
2023-03-26T13:03:56.496Z,0.60
2023-03-26T13:06:33.595Z,0.73
2023-03-26T13:09:50.006Z,0.80
2023-03-26T13:12:46.232Z,1.10
2023-03-26T13:15:36.905Z,0.80
2023-03-26T13:18:18.689Z,1.10
2023-03-26T13:20:49.268Z,1.10
2023-03-26T13:23:46.615Z,1.35
2023-03-26T13:26:26.655Z,1.75
2023-03-26T13:29:01.994Z,1.63
2023-03-26T13:31:35.241Z,2.05
2023-03-26T13:34:27.587Z,1.77
2023-03-26T13:37:12.821Z,1.20
2023-03-26T13:40:04.998Z,1.40
2023-03-26T13:42:59.104Z,1.48
2023-03-26T13:45:56.338Z,1.40
2023-03-26T13:48:28.285Z,1.67
2023-03-26T13:51:23.370Z,1.67
2023-03-26T13:53:58.404Z,2.00
2023-03-26T13:56:38.438Z,2.38
2023-03-26T13:59:33.688Z,2.33
2023-03-26T14:02:11.587Z,2.30
2023-03-26T14:04:47.426Z,1.80
2023-03-26T14:07:25.265Z,2.53
2023-03-26T14:10:27.049Z,2.28
2023-03-26T14:13:07.234Z,2.58
2023-03-26T14:15:46.273Z,2.70
2023-03-26T14:18:33.415Z,2.85
2023-03-26T14:21:14.100Z,2.35
2023-03-26T14:24:04.987Z,2.50
2023-03-26T14:26:40.678Z,2.53
2023-03-26T14:58:39.989Z,3.17
2023-03-26T15:00:46.447Z,2.65
2023-03-26T15:01:21.197Z,2.33
2023-03-26T15:02:35.840Z,2.50
2023-03-26T15:05:35.080Z,12.05
